Time;durP1;ratioP1;P1;durP2;ratioP2;P2;SDS_P1;SDS_P2;PMS_P1;PMS_P2;Temp;Humidity;BMP_temperature;BMP_pressure;BME280_temperature;BME280_humidity;BME280_pressure;Samples;Min_cycle;Max_cycle;Signal;HPM_P1;HPM_P2
2021/06/15 00:00:59;;;;;;;7.55;1.55;;;20.10;73.40;;;;;;5174623;27;20106;-86
2021/06/15 00:03:25;;;;;;;5.30;1.30;;;20.10;73.40;;;;;;5174235;27;20489;-86
2021/06/15 00:05:51;;;;;;;6.25;1.40;;;20.10;73.50;;;;;;5171363;27;20045;-86
2021/06/15 00:08:18;;;;;;;7.00;1.20;;;20.00;73.50;;;;;;5153564;27;20060;-86
2021/06/15 00:10:45;;;;;;;6.25;1.35;;;20.00;73.50;;;;;;5153908;27;20051;-86
2021/06/15 00:13:11;;;;;;;6.07;1.23;;;20.00;73.80;;;;;;5153537;27;20047;-86
2021/06/15 00:15:40;;;;;;;5.97;1.25;;;19.90;73.50;;;;;;5153346;27;20039;-86
2021/06/15 00:18:07;;;;;;;7.97;1.58;;;19.90;73.80;;;;;;5154226;27;20050;-87
2021/06/15 00:20:33;;;;;;;5.93;1.33;;;19.90;73.80;;;;;;5153323;27;20514;-86
2021/06/15 00:22:58;;;;;;;6.65;1.20;;;19.90;73.70;;;;;;5153290;27;20050;-86
2021/06/15 00:25:24;;;;;;;6.38;1.50;;;19.90;73.90;;;;;;5158006;27;20043;-86
2021/06/15 00:27:50;;;;;;;5.10;1.25;;;19.90;74.10;;;;;;5178408;27;20046;-86
2021/06/15 00:30:20;;;;;;;4.40;1.20;;;19.80;73.70;;;;;;5178319;27;20050;-86
2021/06/15 00:32:56;;;;;;;4.93;1.23;;;19.80;73.60;;;;;;5178469;27;20129;-87
2021/06/15 00:35:41;;;;;;;8.85;1.20;;;19.80;72.90;;;;;;5160630;27;20587;-86
2021/06/15 00:38:11;;;;;;;5.88;1.23;;;19.80;73.20;;;;;;5157657;27;20066;-86
2021/06/15 00:40:48;;;;;;;5.80;0.98;;;19.70;73.80;;;;;;5157352;27;20494;-86
2021/06/15 00:43:14;;;;;;;6.03;1.30;;;19.70;73.20;;;;;;5156970;27;20049;-86
2021/06/15 00:45:40;;;;;;;6.55;1.30;;;19.70;73.60;;;;;;5162432;27;20179;-87
2021/06/15 00:48:19;;;;;;;5.03;1.10;;;19.60;74.00;;;;;;5178252;27;20435;-86
2021/06/15 00:50:45;;;;;;;7.95;1.25;;;19.60;73.90;;;;;;5177555;27;20042;-86
2021/06/15 00:53:10;;;;;;;7.35;1.40;;;19.50;73.50;;;;;;5177838;27;20511;-86
2021/06/15 00:55:36;;;;;;;6.38;1.20;;;19.50;73.90;;;;;;5177226;27;20042;-86
2021/06/15 00:58:02;;;;;;;6.47;1.27;;;19.50;74.00;;;;;;5177860;27;20074;-86
2021/06/15 01:00:28;;;;;;;5.43;1.20;;;19.50;74.30;;;;;;5177845;27;20095;-87
2021/06/15 01:02:53;;;;;;;6.15;1.40;;;19.40;73.70;;;;;;5177575;27;20046;-86
2021/06/15 01:05:19;;;;;;;6.28;1.30;;;19.40;74.00;;;;;;5171832;27;20066;-86
2021/06/15 01:07:56;;;;;;;8.55;1.50;;;19.40;74.10;;;;;;5156873;27;20478;-86
2021/06/15 01:10:47;;;;;;;6.78;1.20;;;19.30;72.60;;;;;;5157210;27;20038;-86
2021/06/15 01:14:00;;;;;;;7.25;1.33;;;19.30;73.30;;;;;;5156914;27;20050;-86
2021/06/15 01:16:35;;;;;;;5.90;1.30;;;19.20;73.00;;;;;;5117161;27;20133;-86
2021/06/15 01:19:11;;;;;;;7.45;1.33;;;19.20;73.70;;;;;;5156358;27;20069;-86
2021/06/15 01:21:55;;;;;;;5.32;1.30;;;19.20;74.10;;;;;;5156365;27;20050;-87
2021/06/15 01:24:51;;;;;;;7.57;1.30;;;19.20;74.20;;;;;;5156209;27;20047;-86
2021/06/15 01:27:54;;;;;;;6.55;1.38;;;19.10;72.90;;;;;;5156491;27;20486;-86
2021/06/15 01:30:26;;;;;;;5.43;1.10;;;19.00;72.70;;;;;;5123736;27;20474;-86
2021/06/15 01:32:56;;;;;;;7.13;1.47;;;19.00;74.40;;;;;;5155986;27;20090;-86
2021/06/15 01:35:23;;;;;;;6.55;1.40;;;19.00;74.50;;;;;;5156479;27;20073;-87
2021/06/15 01:37:57;;;;;;;6.10;1.33;;;18.90;74.80;;;;;;5156459;27;20077;-87
2021/06/15 01:40:24;;;;;;;;;;;18.90;75.10;;;;;;5156056;27;20114;-87
2021/06/15 01:42:53;;;;;;;6.05;1.48;;;18.80;72.50;;;;;;5156200;27;19954;-87
2021/06/15 01:45:27;;;;;;;6.93;1.25;;;18.80;75.10;;;;;;5165307;27;20050;-87
2021/06/15 01:48:04;;;;;;;7.03;1.27;;;18.80;75.40;;;;;;5177123;27;20038;-87
2021/06/15 01:50:33;;;;;;;6.55;1.27;;;18.80;74.90;;;;;;5176268;27;20050;-87
2021/06/15 01:53:00;;;;;;;5.75;1.42;;;18.70;75.10;;;;;;5176450;27;20489;-87
2021/06/15 01:55:28;;;;;;;9.52;1.50;;;18.70;75.30;;;;;;5176376;27;20046;-87
2021/06/15 01:57:55;;;;;;;4.80;1.15;;;18.70;75.40;;;;;;5176849;27;20122;-87
2021/06/15 02:00:21;;;;;;;7.03;1.20;;;18.70;75.00;;;;;;5176544;27;20406;-86
2021/06/15 02:02:49;;;;;;;8.95;1.58;;;18.60;74.70;;;;;;5177098;27;20058;-87
2021/06/15 02:05:22;;;;;;;7.32;1.38;;;18.50;74.40;;;;;;5165202;27;20053;-86
2021/06/15 02:07:49;;;;;;;6.28;1.30;;;18.50;74.70;;;;;;5155386;27;20042;-87
2021/06/15 02:10:17;;;;;;;8.38;1.33;;;18.40;75.40;;;;;;5156053;27;20046;-87
2021/06/15 02:12:49;;;;;;;8.35;1.40;;;18.40;75.40;;;;;;5155393;27;20055;-86
2021/06/15 02:15:35;;;;;;;7.55;1.38;;;18.40;75.50;;;;;;5155132;27;20051;-87
2021/06/15 02:18:01;;;;;;;5.47;1.10;;;18.40;76.00;;;;;;5155990;27;20054;-86
2021/06/15 02:20:37;;;;;;;5.63;1.15;;;18.40;76.10;;;;;;5155428;27;20440;-86
2021/06/15 02:23:04;;;;;;;9.85;1.45;;;18.30;75.90;;;;;;5155617;27;20049;-86
2021/06/15 02:25:57;;;;;;;6.80;1.13;;;18.30;76.20;;;;;;5158002;27;20413;-87
2021/06/15 02:28:43;;;;;;;6.15;1.02;;;18.30;76.10;;;;;;5159983;27;20486;-87
2021/06/15 02:31:24;;;;;;;8.70;1.50;;;18.30;76.00;;;;;;5176566;27;20054;-87
2021/06/15 02:33:53;;;;;;;7.32;1.17;;;18.20;76.00;;;;;;5176205;27;20378;-87
2021/06/15 02:36:24;;;;;;;6.05;1.10;;;18.20;76.20;;;;;;5155812;27;20057;-88
2021/06/15 02:39:04;;;;;;;6.72;1.42;;;18.20;76.10;;;;;;5155386;27;20435;-87
2021/06/15 02:41:33;;;;;;;9.25;1.30;;;18.10;75.40;;;;;;5155151;27;20078;-87
2021/06/15 02:44:01;;;;;;;4.95;0.90;;;18.10;76.40;;;;;;5158606;27;20052;-86
2021/06/15 02:46:31;;;;;;;6.93;1.50;;;18.10;76.30;;;;;;5175183;27;20046;-86
2021/06/15 02:48:59;;;;;;;6.90;1.15;;;18.10;75.90;;;;;;5175697;27;20046;-86
2021/06/15 02:51:33;;;;;;;6.78;1.55;;;18.00;76.30;;;;;;5175687;27;20045;-86
2021/06/15 02:54:04;;;;;;;;;;;18.00;76.00;;;;;;5176236;27;20414;-87
2021/06/15 02:56:32;;;;;;;7.40;1.27;;;17.90;73.80;;;;;;5175144;27;19930;-87
2021/06/15 02:58:58;;;;;;;8.10;1.42;;;17.90;76.10;;;;;;5175755;27;20592;-86
2021/06/15 03:01:23;;;;;;;5.07;0.90;;;17.90;76.20;;;;;;5175349;27;20132;-87
2021/06/15 03:03:50;;;;;;;5.57;1.15;;;17.90;76.20;;;;;;5174707;27;20054;-87
2021/06/15 03:06:15;;;;;;;6.90;1.55;;;17.80;76.30;;;;;;5169562;27;20050;-86
2021/06/15 03:08:41;;;;;;;9.68;1.38;;;17.80;76.30;;;;;;5154366;27;20073;-87
2021/06/15 03:11:07;;;;;;;6.07;1.23;;;17.80;76.80;;;;;;5153957;27;20043;-86
2021/06/15 03:13:44;;;;;;;6.95;1.40;;;17.80;76.80;;;;;;5154626;27;20557;-86
2021/06/15 03:16:15;;;;;;;6.32;1.40;;;17.80;76.80;;;;;;5154546;27;20138;-86
2021/06/15 03:18:59;;;;;;;5.45;1.20;;;17.70;76.90;;;;;;5153786;27;20046;-87
2021/06/15 03:21:26;;;;;;;7.55;1.65;;;17.70;76.70;;;;;;5154068;27;20042;-87
2021/06/15 03:24:01;;;;;;;7.25;1.38;;;17.70;76.70;;;;;;5154385;27;20049;-86
2021/06/15 03:26:46;;;;;;;7.25;1.65;;;17.70;76.80;;;;;;5163773;27;20481;-86
2021/06/15 03:29:36;;;;;;;7.35;1.33;;;17.60;76.40;;;;;;5159620;27;20046;-86
2021/06/15 03:32:24;;;;;;;6.78;1.23;;;17.60;77.00;;;;;;5158833;27;20489;-86
2021/06/15 03:34:52;;;;;;;7.53;1.33;;;17.60;77.00;;;;;;5175284;27;20038;-86
2021/06/15 03:37:22;;;;;;;8.77;1.52;;;17.50;77.00;;;;;;5174824;27;20688;-86
2021/06/15 03:39:51;;;;;;;5.97;1.35;;;17.50;76.90;;;;;;5174588;27;20489;-86
2021/06/15 03:42:25;;;;;;;7.88;1.30;;;17.50;76.80;;;;;;5175071;27;20074;-86
2021/06/15 03:45:00;;;;;;;7.15;1.38;;;17.50;76.40;;;;;;5175323;27;20049;-86
2021/06/15 03:47:27;;;;;;;7.38;1.38;;;17.50;76.20;;;;;;5174298;27;20042;-87
2021/06/15 03:49:54;;;;;;;6.57;1.30;;;17.40;76.60;;;;;;5174944;27;20042;-87
2021/06/15 03:52:26;;;;;;;10.82;1.52;;;17.40;76.90;;;;;;5174688;27;20049;-87
2021/06/15 03:54:54;;;;;;;6.05;1.63;;;17.40;76.60;;;;;;5175205;27;20046;-87
2021/06/15 03:57:20;;;;;;;6.38;1.30;;;17.40;76.80;;;;;;5157366;27;20489;-87
2021/06/15 03:59:47;;;;;;;8.15;1.63;;;17.40;76.80;;;;;;5155970;27;20046;-87
2021/06/15 04:02:14;;;;;;;9.63;1.55;;;17.30;77.20;;;;;;5158232;27;20046;-87
2021/06/15 04:04:42;;;;;;;6.47;1.65;;;17.30;76.80;;;;;;5157680;27;20058;-87
2021/06/15 04:07:14;;;;;;;6.75;1.58;;;17.30;77.00;;;;;;5157844;27;20122;-87
2021/06/15 04:09:40;;;;;;;5.60;1.60;;;17.30;77.20;;;;;;5158176;27;20122;-88
2021/06/15 04:12:09;;;;;;;7.38;1.40;;;17.20;77.10;;;;;;5157927;27;20478;-87
2021/06/15 04:14:35;;;;;;;7.63;1.25;;;17.20;77.40;;;;;;5157259;27;20058;-87
2021/06/15 04:17:03;;;;;;;7.00;1.48;;;17.20;77.40;;;;;;5173825;27;20402;-87
2021/06/15 04:19:33;;;;;;;8.40;1.25;;;17.20;77.50;;;;;;5178445;27;20121;-87
2021/06/15 04:22:01;;;;;;;6.07;1.50;;;17.20;77.30;;;;;;5178502;27;20050;-87
2021/06/15 04:24:28;;;;;;;6.68;1.55;;;17.20;77.50;;;;;;5178390;27;20042;-87
2021/06/15 04:26:59;;;;;;;6.55;1.20;;;17.10;77.30;;;;;;5178752;27;20481;-88
2021/06/15 04:29:28;;;;;;;7.60;1.40;;;17.20;77.10;;;;;;5178025;27;20085;-87
2021/06/15 04:31:59;;;;;;;9.90;1.40;;;17.10;76.50;;;;;;5178533;27;20054;-87
2021/06/15 04:34:33;;;;;;;5.57;1.52;;;17.10;77.00;;;;;;5177768;27;20050;-87
2021/06/15 04:37:05;;;;;;;7.60;1.70;;;17.10;77.10;;;;;;5160016;27;20038;-87
2021/06/15 04:39:48;;;;;;;9.05;2.05;;;17.00;77.20;;;;;;5157186;27;20057;-87
2021/06/15 04:42:16;;;;;;;5.47;1.30;;;17.10;77.50;;;;;;5156977;27;20062;-87
2021/06/15 04:44:53;;;;;;;9.38;1.55;;;17.10;77.70;;;;;;5157738;27;20043;-87
2021/06/15 04:47:27;;;;;;;9.27;1.58;;;17.00;77.60;;;;;;5158471;27;20427;-87
2021/06/15 04:50:19;;;;;;;7.97;1.55;;;17.10;77.20;;;;;;5157038;27;20055;-87
2021/06/15 04:52:50;;;;;;;6.47;1.50;;;17.00;76.70;;;;;;5156528;27;20413;-87
2021/06/15 04:55:19;;;;;;;6.25;1.20;;;17.00;77.40;;;;;;5162642;27;20125;-87
2021/06/15 04:57:47;;;;;;;6.95;1.35;;;17.00;77.50;;;;;;5177633;27;20547;-87
2021/06/15 05:00:13;;;;;;;8.43;1.80;;;17.00;77.20;;;;;;5177902;27;20042;-86
2021/06/15 05:02:40;;;;;;;8.50;1.67;;;17.00;77.50;;;;;;5176929;27;20058;-87
2021/06/15 05:05:11;;;;;;;7.72;1.50;;;17.00;77.10;;;;;;5177523;27;20054;-87
2021/06/15 05:07:39;;;;;;;8.00;1.90;;;17.00;77.00;;;;;;5176483;27;20114;-87
2021/06/15 05:10:14;;;;;;;9.63;1.65;;;17.00;76.90;;;;;;5175941;27;20125;-87
2021/06/15 05:12:44;;;;;;;8.98;1.60;;;16.90;77.00;;;;;;5168272;27;20042;-87
2021/06/15 05:15:21;;;;;;;11.77;1.70;;;17.00;77.00;;;;;;5166161;27;20046;-87
2021/06/15 05:17:49;;;;;;;11.15;1.60;;;17.00;77.00;;;;;;5163983;27;20482;-88
2021/06/15 05:20:15;;;;;;;7.47;1.63;;;17.00;77.00;;;;;;5165583;27;20038;-87
2021/06/15 05:23:11;;;;;;;9.88;2.00;;;16.90;77.10;;;;;;5161079;27;20042;-88
2021/06/15 05:25:37;;;;;;;9.80;1.65;;;16.90;76.90;;;;;;5150801;27;20130;-87
2021/06/15 05:28:03;;;;;;;8.45;1.67;;;16.90;77.20;;;;;;5155673;27;20066;-87
2021/06/15 05:30:29;;;;;;;7.32;2.00;;;17.00;77.50;;;;;;5155521;27;20387;-87
2021/06/15 05:32:55;;;;;;;7.80;1.40;;;17.00;77.80;;;;;;5150647;27;20050;-89
2021/06/15 05:35:21;;;;;;;9.48;1.92;;;16.90;77.70;;;;;;5166165;27;20069;-88
2021/06/15 05:37:48;;;;;;;8.95;1.85;;;16.90;77.60;;;;;;5167300;27;20091;-90
2021/06/15 05:40:16;;;;;;;8.57;1.80;;;17.00;78.00;;;;;;5168311;27;20087;-82
2021/06/15 05:42:42;;;;;;;10.13;1.90;;;17.00;78.10;;;;;;5162286;27;20042;-85
2021/06/15 05:45:09;;;;;;;9.68;1.60;;;17.00;77.30;;;;;;5166922;27;20066;-85
2021/06/15 05:47:36;;;;;;;7.75;1.65;;;17.00;77.40;;;;;;5159500;27;20043;-83
2021/06/15 05:50:05;;;;;;;8.48;1.67;;;17.00;77.40;;;;;;5169408;27;20168;-83
2021/06/15 05:52:31;;;;;;;12.07;2.13;;;17.00;77.50;;;;;;5164168;27;20042;-85
2021/06/15 05:54:59;;;;;;;9.30;1.60;;;17.00;77.00;;;;;;5161970;27;20553;-84
2021/06/15 05:57:26;;;;;;;13.82;1.80;;;17.00;76.90;;;;;;5171766;27;20077;-85
2021/06/15 05:59:52;;;;;;;9.65;1.70;;;17.00;76.40;;;;;;5158765;27;20049;-83
2021/06/15 06:02:19;;;;;;;12.07;2.05;;;17.00;76.70;;;;;;5165105;27;62848;-83
2021/06/15 06:10:08;;;;;;;9.13;1.70;;;17.10;78.10;;;;;;5152846;27;20478;-87
2021/06/15 06:12:34;;;;;;;11.85;1.92;;;17.10;77.20;;;;;;5153945;27;20042;-86
2021/06/15 06:15:04;;;;;;;6.88;1.58;;;17.20;77.40;;;;;;5162883;27;20130;-87
2021/06/15 06:17:31;;;;;;;8.23;1.85;;;17.20;77.60;;;;;;5173937;27;20054;-86
2021/06/15 06:19:57;;;;;;;12.05;1.70;;;17.20;77.30;;;;;;5159828;27;20042;-86
2021/06/15 06:22:22;;;;;;;6.60;1.48;;;17.30;77.10;;;;;;5174852;27;20035;-86
2021/06/15 06:24:49;;;;;;;8.85;1.70;;;17.40;77.00;;;;;;5163648;27;20262;-87
2021/06/15 06:27:15;;;;;;;8.75;1.67;;;17.40;76.90;;;;;;5171233;27;20094;-87
2021/06/15 06:29:41;;;;;;;10.35;1.92;;;17.50;77.00;;;;;;5174273;27;20072;-86
2021/06/15 06:32:07;;;;;;;10.52;1.77;;;17.50;76.20;;;;;;5169222;27;20043;-88
2021/06/15 06:34:33;;;;;;;7.47;1.55;;;17.50;75.30;;;;;;5152447;27;20119;-84
2021/06/15 06:36:59;;;;;;;13.20;2.28;;;17.60;76.00;;;;;;5152438;27;20045;-87
2021/06/15 06:39:25;;;;;;;9.60;1.73;;;17.60;74.80;;;;;;5166655;27;20608;-86
2021/06/15 06:41:51;;;;;;;6.03;1.52;;;17.60;74.60;;;;;;5158732;27;20121;-87
2021/06/15 06:44:17;;;;;;;9.10;2.03;;;17.70;75.40;;;;;;5169493;27;20053;-87
2021/06/15 06:46:43;;;;;;;7.47;1.50;;;17.70;75.40;;;;;;5163443;27;20043;-87
2021/06/15 06:49:08;;;;;;;8.38;1.80;;;17.80;75.70;;;;;;5169521;27;20046;-86
2021/06/15 06:51:34;;;;;;;8.23;1.65;;;17.90;75.90;;;;;;5158051;27;20046;-87
2021/06/15 06:54:00;;;;;;;13.65;2.05;;;18.00;75.50;;;;;;5175035;27;20425;-85
2021/06/15 06:56:27;;;;;;;9.10;1.85;;;18.10;74.00;;;;;;5165005;27;20482;-87
2021/06/15 06:58:54;;;;;;;6.10;1.48;;;18.20;73.60;;;;;;5134550;27;20049;-86
2021/06/15 07:01:21;;;;;;;9.05;1.45;;;18.20;74.50;;;;;;5162144;27;20038;-86
2021/06/15 07:03:48;;;;;;;9.95;1.70;;;18.30;74.90;;;;;;5157926;27;20050;-87
2021/06/15 07:06:15;;;;;;;7.85;1.48;;;18.40;75.20;;;;;;5167617;27;20046;-87
2021/06/15 07:08:41;;;;;;;7.25;1.60;;;18.50;75.20;;;;;;5165916;27;20046;-87
2021/06/15 07:11:07;;;;;;;9.27;1.75;;;18.60;75.10;;;;;;5163850;27;20045;-86
2021/06/15 07:13:32;;;;;;;7.60;1.50;;;18.60;75.20;;;;;;5156567;27;20047;-85
2021/06/15 07:16:08;;;;;;;9.50;1.90;;;18.70;74.90;;;;;;5159538;27;20042;-87
2021/06/15 07:18:36;;;;;;;6.45;1.40;;;18.80;74.60;;;;;;5163662;27;20172;-85
2021/06/15 07:21:04;;;;;;;10.73;1.95;;;18.90;74.50;;;;;;5168796;27;20099;-85
2021/06/15 07:23:29;;;;;;;11.13;2.00;;;19.00;73.10;;;;;;5156935;27;20047;-87
2021/06/15 07:25:55;;;;;;;6.90;1.73;;;19.10;73.00;;;;;;5170529;27;20043;-87
2021/06/15 07:28:41;;;;;;;9.98;2.00;;;19.10;72.40;;;;;;5149693;27;20098;-86
2021/06/15 07:31:09;;;;;;;8.80;1.75;;;19.10;71.10;;;;;;5156952;27;20139;-86
2021/06/15 07:33:54;;;;;;;10.15;1.75;;;19.20;71.90;;;;;;5157872;27;20042;-86
2021/06/15 07:36:40;;;;;;;9.38;1.90;;;19.20;70.20;;;;;;5147497;27;20042;-85
2021/06/15 07:39:26;;;;;;;7.85;1.73;;;19.20;69.20;;;;;;5155474;27;20508;-86
2021/06/15 07:42:13;;;;;;;8.70;1.73;;;19.30;70.30;;;;;;5148840;27;20482;-89
2021/06/15 07:44:58;;;;;;;7.00;1.52;;;19.30;71.90;;;;;;5145057;27;20116;-89
2021/06/15 07:47:24;;;;;;;7.40;1.63;;;19.40;72.20;;;;;;5170783;27;20065;-86
2021/06/15 07:50:10;;;;;;;6.82;1.50;;;19.50;72.60;;;;;;5152413;27;20043;-88
2021/06/15 07:52:37;;;;;;;6.93;1.77;;;19.60;72.20;;;;;;5164257;27;20058;-89
2021/06/15 07:55:22;;;;;;;8.93;1.65;;;19.70;72.50;;;;;;5142424;27;20065;-89
2021/06/15 07:58:08;;;;;;;10.52;2.05;;;19.80;70.80;;;;;;5153392;27;20046;-86
2021/06/15 08:00:53;;;;;;;6.68;1.65;;;19.80;69.60;;;;;;5151581;27;20038;-89
2021/06/15 08:03:19;;;;;;;9.05;2.05;;;19.90;71.40;;;;;;5174484;27;20099;-89
2021/06/15 08:06:02;;;;;;;8.90;1.95;;;20.00;70.80;;;;;;5157692;27;20035;-88
2021/06/15 08:08:27;;;;;;;9.32;1.70;;;20.10;70.90;;;;;;5163658;27;20038;-90
2021/06/15 08:11:15;;;;;;;9.52;1.80;;;20.10;69.90;;;;;;5160631;27;20081;-91
2021/06/15 08:13:41;;;;;;;8.30;1.70;;;20.30;69.60;;;;;;5154227;27;20050;-90
2021/06/15 08:16:07;;;;;;;6.60;1.58;;;20.30;70.80;;;;;;5161406;27;20046;-92
2021/06/15 08:18:32;;;;;;;6.85;1.48;;;20.40;71.50;;;;;;5174195;27;20125;-90
2021/06/15 08:21:00;;;;;;;10.52;2.20;;;20.50;70.70;;;;;;5160800;27;20115;-96
2021/06/15 08:23:27;;;;;;;7.20;1.52;;;20.60;68.30;;;;;;5158734;27;20042;-92
2021/06/15 08:26:12;;;;;;;7.78;1.63;;;20.60;68.70;;;;;;5151946;27;20047;-92
2021/06/15 08:28:38;;;;;;;8.48;1.60;;;20.70;70.10;;;;;;5164672;27;20441;-94
2021/06/15 08:31:24;;;;;;;8.05;1.70;;;20.80;70.10;;;;;;5140583;27;20046;-90
2021/06/15 08:33:49;;;;;;;8.73;1.70;;;20.80;70.30;;;;;;5170090;27;20047;-87
2021/06/15 08:36:15;;;;;;;10.73;2.25;;;20.90;68.00;;;;;;5160383;27;20038;-86
2021/06/15 08:39:04;;;;;;;8.85;1.70;;;20.90;65.30;;;;;;5144435;27;20046;-86
2021/06/15 08:41:30;;;;;;;9.88;1.65;;;20.80;63.80;;;;;;5161572;27;20382;-87
2021/06/15 08:43:56;;;;;;;7.32;1.83;;;20.70;66.90;;;;;;5149991;27;20046;-87
2021/06/15 08:46:22;;;;;;;8.50;1.70;;;20.80;68.80;;;;;;5164992;27;20049;-85
2021/06/15 08:48:47;;;;;;;7.97;1.58;;;20.90;69.70;;;;;;5165408;27;20124;-88
2021/06/15 08:51:13;;;;;;;7.15;1.60;;;21.00;70.10;;;;;;5158470;27;20201;-83
2021/06/15 08:53:39;;;;;;;6.50;1.70;;;21.10;69.60;;;;;;5164620;27;20085;-81
2021/06/15 08:56:21;;;;;;;9.57;1.70;;;21.30;70.30;;;;;;5163788;27;20045;-80
2021/06/15 08:59:02;;;;;;;5.22;1.30;;;21.40;70.00;;;;;;5168757;27;20074;-81
2021/06/15 09:01:27;;;;;;;7.25;1.67;;;21.50;69.60;;;;;;5159732;27;20391;-80
2021/06/15 09:03:53;;;;;;;9.63;1.80;;;21.60;69.90;;;;;;5172065;27;20072;-81
2021/06/15 09:06:20;;;;;;;4.63;1.23;;;21.70;69.60;;;;;;5164571;27;20053;-80
2021/06/15 09:09:00;;;;;;;9.57;2.03;;;21.80;69.80;;;;;;5164287;27;20054;-80
2021/06/15 09:11:45;;;;;;;7.18;1.65;;;22.00;68.80;;;;;;5173756;27;20058;-81
2021/06/15 09:14:11;;;;;;;8.02;2.03;;;22.00;68.30;;;;;;5163518;27;20050;-81
2021/06/15 09:16:36;;;;;;;8.48;1.80;;;22.20;64.90;;;;;;5165518;27;20050;-81
2021/06/15 09:19:15;;;;;;;8.48;1.90;;;22.10;64.10;;;;;;5170497;27;20053;-82
2021/06/15 09:21:42;;;;;;;8.43;1.67;;;22.10;63.90;;;;;;5159870;27;20042;-81
2021/06/15 09:24:26;;;;;;;8.93;1.98;;;22.10;64.90;;;;;;5169982;27;20043;-82
2021/06/15 09:27:02;;;;;;;9.57;1.88;;;22.10;64.80;;;;;;5169109;27;20046;-82
2021/06/15 09:29:37;;;;;;;9.27;1.80;;;22.10;65.70;;;;;;5158918;27;20121;-82
2021/06/15 09:32:04;;;;;;;9.48;1.80;;;22.20;63.90;;;;;;5171044;27;20042;-82
2021/06/15 09:34:29;;;;;;;8.10;1.88;;;22.10;62.90;;;;;;5165523;27;20054;-81
2021/06/15 09:36:55;;;;;;;8.05;1.60;;;22.20;61.70;;;;;;5163230;27;20470;-82
2021/06/15 09:39:21;;;;;;;8.75;1.67;;;22.30;62.40;;;;;;5173336;27;20098;-80
2021/06/15 09:41:48;;;;;;;7.95;1.77;;;22.30;62.30;;;;;;5159590;27;20041;-81
2021/06/15 09:44:17;;;;;;;7.13;1.42;;;22.40;65.40;;;;;;5165270;27;20046;-80
2021/06/15 09:46:44;;;;;;;6.60;1.58;;;22.50;67.00;;;;;;5165514;27;20129;-81
2021/06/15 09:49:10;;;;;;;8.70;1.90;;;22.60;67.00;;;;;;5176421;27;20092;-80
2021/06/15 09:51:35;;;;;;;9.50;2.00;;;22.70;62.90;;;;;;5158510;27;20487;-80
2021/06/15 09:54:01;;;;;;;10.50;2.08;;;22.60;62.40;;;;;;5166746;27;20095;-82
2021/06/15 09:56:27;;;;;;;13.20;2.00;;;22.60;61.00;;;;;;5152645;27;20134;-81
2021/06/15 09:58:55;;;;;;;7.15;1.58;;;22.70;60.30;;;;;;5155208;27;20169;-81
2021/06/15 10:01:34;;;;;;;6.70;1.48;;;22.70;62.60;;;;;;5165271;27;20045;-80
2021/06/15 10:04:18;;;;;;;6.82;1.70;;;22.70;65.00;;;;;;5152916;27;20138;-81
2021/06/15 10:06:59;;;;;;;8.82;1.80;;;22.80;65.40;;;;;;5166399;27;20038;-81
2021/06/15 10:09:35;;;;;;;9.00;2.10;;;22.90;61.80;;;;;;5175646;27;20142;-84
2021/06/15 10:12:07;;;;;;;10.65;1.90;;;22.90;61.70;;;;;;5160913;27;20042;-84
2021/06/15 10:14:36;;;;;;;8.70;1.85;;;22.90;60.10;;;;;;5165321;27;20085;-84
2021/06/15 10:17:02;;;;;;;7.95;1.80;;;22.90;61.60;;;;;;5169692;27;20061;-83
2021/06/15 10:19:28;;;;;;;7.60;1.80;;;22.80;63.10;;;;;;5157999;27;20478;-84
2021/06/15 10:21:54;;;;;;;11.77;1.90;;;22.90;64.10;;;;;;5167845;27;20045;-84
2021/06/15 10:24:25;;;;;;;8.52;1.52;;;23.00;62.80;;;;;;5163281;27;20402;-84
2021/06/15 10:26:52;;;;;;;6.20;1.55;;;23.00;64.00;;;;;;5170238;27;20494;-84
2021/06/15 10:29:18;;;;;;;9.93;1.80;;;23.10;63.90;;;;;;5165824;27;20124;-84
2021/06/15 10:31:47;;;;;;;6.47;1.55;;;23.20;64.00;;;;;;5156268;27;20042;-85
2021/06/15 10:34:13;;;;;;;9.30;1.88;;;23.30;65.00;;;;;;5153129;27;20045;-84
2021/06/15 10:36:44;;;;;;;8.63;1.90;;;23.40;62.60;;;;;;5165478;27;20129;-84
2021/06/15 10:39:17;;;;;;;7.45;1.63;;;23.40;59.50;;;;;;5167596;27;20494;-84
2021/06/15 10:41:43;;;;;;;7.25;1.60;;;23.50;62.60;;;;;;5171597;27;20069;-84
2021/06/15 10:44:10;;;;;;;9.20;1.88;;;23.60;64.00;;;;;;5172845;27;20046;-83
2021/06/15 10:46:41;;;;;;;5.57;1.33;;;23.70;60.70;;;;;;5166123;27;20415;-83
2021/06/15 10:49:09;;;;;;;8.77;1.70;;;23.70;61.70;;;;;;5160237;27;20042;-83
2021/06/15 10:51:39;;;;;;;6.15;1.50;;;23.80;57.00;;;;;;5155686;27;20439;-83
2021/06/15 10:54:29;;;;;;;7.53;1.60;;;23.70;59.60;;;;;;5154269;27;20046;-84
2021/06/15 10:57:29;;;;;;;10.32;1.60;;;23.70;57.40;;;;;;5165840;27;20042;-84
2021/06/15 11:00:33;;;;;;;6.55;1.33;;;23.70;59.50;;;;;;5167746;27;20052;-84
2021/06/15 11:03:17;;;;;;;8.77;1.70;;;23.70;61.20;;;;;;5107474;27;20408;-84
2021/06/15 11:05:45;;;;;;;6.45;1.40;;;23.80;63.00;;;;;;5154884;27;20482;-84
2021/06/15 11:08:28;;;;;;;8.00;1.90;;;24.00;62.40;;;;;;5166647;27;20089;-81
2021/06/15 11:11:03;;;;;;;8.32;1.77;;;24.10;62.50;;;;;;5162191;27;20476;-82
2021/06/15 11:13:46;;;;;;;7.43;1.73;;;24.20;63.20;;;;;;5170521;27;20081;-87
2021/06/15 11:16:32;;;;;;;7.05;1.45;;;24.40;63.60;;;;;;5153737;27;20039;-88
2021/06/15 11:19:19;;;;;;;7.80;1.88;;;24.50;60.40;;;;;;5162590;27;20049;-83
2021/06/15 11:21:57;;;;;;;7.70;1.50;;;24.50;59.10;;;;;;5173948;27;20082;-84
2021/06/15 11:24:24;;;;;;;6.75;1.58;;;24.70;61.60;;;;;;5164794;27;20053;-84
2021/06/15 11:26:55;;;;;;;6.47;1.42;;;24.80;62.70;;;;;;5166197;27;20125;-85
2021/06/15 11:29:37;;;;;;;6.18;1.65;;;24.90;62.50;;;;;;5164812;27;20045;-84
2021/06/15 11:32:15;;;;;;;8.38;1.50;;;24.90;61.50;;;;;;5160410;27;20074;-83
2021/06/15 11:34:53;;;;;;;6.35;1.52;;;25.00;61.90;;;;;;5173096;27;20046;-84
2021/06/15 11:37:36;;;;;;;7.00;1.70;;;25.00;60.20;;;;;;5157432;27;20069;-86
2021/06/15 11:40:12;;;;;;;9.10;1.50;;;25.00;59.90;;;;;;5163828;27;20367;-85
2021/06/15 11:42:38;;;;;;;6.05;1.50;;;25.10;58.60;;;;;;5156743;27;20039;-84
2021/06/15 11:45:08;;;;;;;6.75;1.25;;;25.20;60.00;;;;;;5162467;27;20049;-83
2021/06/15 11:47:57;;;;;;;8.63;1.85;;;25.20;61.10;;;;;;5163674;27;20125;-84
2021/06/15 11:50:46;;;;;;;6.05;1.40;;;25.30;59.20;;;;;;5168745;27;20035;-84
2021/06/15 11:53:18;;;;;;;4.68;1.45;;;25.30;59.60;;;;;;5163304;27;20050;-84
2021/06/15 11:55:50;;;;;;;5.43;1.30;;;25.40;60.70;;;;;;5171386;27;20039;-84
2021/06/15 11:58:17;;;;;;;;;;;25.50;61.10;;;;;;5170382;27;20046;-85
2021/06/15 12:00:49;;;;;;;6.18;1.40;;;25.50;54.80;;;;;;5165546;27;19919;-84
2021/06/15 12:03:20;;;;;;;8.05;1.75;;;25.50;60.70;;;;;;5154087;27;20058;-86
2021/06/15 12:05:47;;;;;;;6.97;1.42;;;25.60;55.90;;;;;;5160211;27;20126;-86
2021/06/15 12:08:14;;;;;;;4.03;1.17;;;25.60;58.60;;;;;;5151893;27;20179;-86
2021/06/15 12:10:40;;;;;;;6.88;1.50;;;25.70;60.30;;;;;;5162173;27;20047;-87
2021/06/15 12:13:20;;;;;;;6.60;1.52;;;25.80;57.90;;;;;;5158513;27;20133;-88
2021/06/15 12:15:50;;;;;;;9.43;1.90;;;25.80;55.70;;;;;;5157052;27;20046;-87
2021/06/15 12:18:21;;;;;;;7.45;1.60;;;25.80;56.60;;;;;;5166280;27;20050;-88
2021/06/15 12:20:50;;;;;;;7.20;1.60;;;25.90;59.30;;;;;;5168530;27;20117;-87
2021/06/15 12:23:32;;;;;;;5.53;1.45;;;25.80;58.80;;;;;;5164279;27;20078;-88
2021/06/15 12:26:20;;;;;;;5.35;1.20;;;25.90;57.80;;;;;;5165776;27;20043;-88
2021/06/15 12:29:09;;;;;;;7.75;1.75;;;25.80;58.20;;;;;;5171878;27;20042;-89
2021/06/15 12:31:39;;;;;;;8.38;1.55;;;25.80;57.00;;;;;;5174116;27;20042;-88
2021/06/15 12:34:11;;;;;;;9.63;1.65;;;25.90;56.10;;;;;;5175919;27;20621;-87
2021/06/15 12:36:39;;;;;;;9.02;1.38;;;25.90;56.50;;;;;;5173037;27;20066;-87
2021/06/15 12:39:28;;;;;;;7.30;1.55;;;25.90;55.40;;;;;;5173102;27;20158;-87
2021/06/15 12:41:59;;;;;;;5.57;1.45;;;25.80;56.20;;;;;;5161813;27;20130;-87
2021/06/15 12:44:29;;;;;;;7.78;1.45;;;25.90;59.00;;;;;;5168931;27;20043;-87
2021/06/15 12:47:06;;;;;;;6.15;1.30;;;26.00;58.90;;;;;;5153016;27;20044;-88
2021/06/15 12:49:33;;;;;;;5.97;1.42;;;26.10;58.70;;;;;;5160207;27;20042;-87
2021/06/15 12:52:10;;;;;;;7.60;1.40;;;26.20;60.20;;;;;;5172626;27;20478;-87
2021/06/15 12:54:42;;;;;;;5.40;1.20;;;26.40;60.90;;;;;;5165804;27;20504;-88
2021/06/15 12:57:11;;;;;;;6.68;1.40;;;26.50;61.20;;;;;;5162425;27;20043;-87
2021/06/15 12:59:40;;;;;;;4.28;1.20;;;26.60;61.10;;;;;;5140371;27;20552;-86
2021/06/15 13:02:21;;;;;;;7.75;1.25;;;26.70;61.20;;;;;;5162920;27;20038;-86
2021/06/15 13:04:53;;;;;;;6.90;1.42;;;26.80;61.20;;;;;;5169036;27;20089;-87
2021/06/15 13:07:23;;;;;;;6.32;1.40;;;26.90;59.30;;;;;;5174503;27;20097;-86
2021/06/15 13:09:51;;;;;;;5.85;1.60;;;26.90;58.70;;;;;;5159456;27;20046;-87
2021/06/15 13:12:20;;;;;;;8.23;1.65;;;26.90;55.70;;;;;;5157950;27;20088;-85
2021/06/15 13:14:57;;;;;;;6.75;1.48;;;26.80;56.70;;;;;;5166879;27;20054;-86
2021/06/15 13:17:29;;;;;;;7.35;1.50;;;26.70;57.20;;;;;;5157710;27;20051;-89